Corwin, Ohio
Current Conditions -  °F | °C
As of 12:53 AM on Sunday 26 Oct 2014 (Local Time) from KMGY Reporting Station
Clear Clear  
Wind Chill: 59°   Ceiling: Unl
Heat Index: 59°   Visibility: 10mi
Dew Point: 44°   Wind: 5mph
Humidity: 58%   Direction: 300°WNW
Pressure: 29.93"   Gusts: NA
Location:  39.5416°N, 84.0704°W
Report Text: KMGY 260453Z AUTO 30004KT 10SM CLR 15/07 A2993 RMK AO2 SLP130 T01500067 402280072
Loading
Personal Weather Stations






























Interactive Weather Map
Tropical Storm Tracking
New forecast layout! Learn more

10-Day Weather Forecast

Advertisements
Track Severe Weather on mobile